Whitehall, WI (54773)

2:44 AM CDT on August 31, 2015 (GMT -0500)
KWIOSSEO2 | | Change Station
CLOSE
Current Station
Personal Weather Station
Location: Osseo, WI
Elevation: 997 ft
Nearby Weather Stations

Elev 997 ft 44.59 °N, 91.27 °W | Updated 38 seconds ago

Partly Cloudy
Partly Cloudy
61.6 °F
Feels Like 61.6 °F
N
0.0
Wind Variable Wind from North
Gusts 0.0 mph

Today
High -- | Low -- °F
--% Chance of Precip.
Yesterday
High -- | Low -- °F
Precip. -- in
6:26 AM 7:43 PM
Waning Gibbous, 96% visible
Pressure 30.00 in
Visibility 0.2 miles
Clouds Overcast 200 ft
Dew Point 60 °F
Humidity 95%
Rainfall Not available.
Snow Depth Not available.
UV 0 out of 12
Pollen 9.60 out of 12
Air Quality Not available.
Flu Activity Not available.
METAR KBCK 310715Z AUTO 00000KT M1/4SM FG OVC002 12/12 A3000 RMK AO2 T01190119
Pressure 30.00 in
Visibility 0.2 miles
Clouds Overcast 200 ft
Dew Point 60 °F
Humidity 95%
Rainfall Not available.
Snow Depth Not available.
UV 0 out of 12
Pollen 9.60 out of 12
Air Quality Not available.
Flu Activity Not available.
METAR KBCK 310715Z AUTO 00000KT M1/4SM FG OVC002 12/12 A3000 RMK AO2 T01190119

10-Day Weather Forecast

×

Almanac

Astronomy

Aug. 31, 2015 Rise Set
Actual Time
Civil Twilight
Nautical Twilight
Astronomical Twilight
Moon
Length of Visible Light
Length of Day
Tomorrow will be .
, % of the Moon is Illuminated

Today's Extremes

State Highs State Lows

Community

WunderPhotos

Upload Photos

1,851,220 photos uploaded!

WunderBlogs® & News

Nearby

Air Quality

  Air Quality AQ Index Pollutant
Not available.

Snow Depth

Station Depth Elevation

Earthquake Activity

City Distance Mag. Time & Date
Minimum magnitude displayed is 2.5.

Coastal Water Temperatures

Place Temperature

Stations

Nearby Weather Stations

Station Location Temp. Windchill Dew Point Humidity Wind Precip. Elev Updated Type